Time;durP1;ratioP1;P1;durP2;ratioP2;P2;SDS_P1;SDS_P2;PMS_P1;PMS_P2;Temp;Humidity;BMP_temperature;BMP_pressure;BME280_temperature;BME280_humidity;BME280_pressure;Samples;Min_cycle;Max_cycle;Signal;HPM_P1;HPM_P2
2021/07/20 00:01:08;;;;;;;25.17;20.30;;;;;;;;;;4989019;28;20521;-90
2021/07/20 00:03:34;;;;;;;24.43;20.17;;;;;;;;;;4984133;28;20476;-91
2021/07/20 00:06:01;;;;;;;23.17;20.70;;;;;;;;;;4983250;28;20488;-90
2021/07/20 00:08:28;;;;;;;23.97;20.73;;;;;;;;;;5003187;28;20984;-91
2021/07/20 00:10:56;;;;;;;27.80;20.00;;;;;;;;;;5003314;28;20448;-91
2021/07/20 00:13:22;;;;;;;28.97;19.80;;;;;;;;;;5002848;28;20461;-90
2021/07/20 00:15:51;;;;;;;25.60;19.53;;;;;;;;;;5002462;28;20456;-91
2021/07/20 00:18:19;;;;;;;24.60;20.13;;;;;;;;;;5002434;28;20547;-91
2021/07/20 00:20:45;;;;;;;24.97;20.53;;;;;;;;;;4999252;28;20457;-91
2021/07/20 00:23:12;;;;;;;28.97;20.27;;;;;;;;;;4984669;28;20458;-90
2021/07/20 00:25:40;;;;;;;27.07;21.60;;;;;;;;;;4984555;28;20504;-94
2021/07/20 00:28:07;;;;;;;27.20;20.13;;;;;;;;;;4984452;28;20450;-94
2021/07/20 00:30:34;;;;;;;23.73;19.47;;;;;;;;;;4983823;28;20987;-95
2021/07/20 00:33:00;;;;;;;22.07;19.60;;;;;;;;;;4993218;28;20465;-93
2021/07/20 00:35:27;;;;;;;20.73;18.40;;;;;;;;;;5000129;28;20458;-93
2021/07/20 00:37:53;;;;;;;26.20;20.87;;;;;;;;;;4984089;28;20454;-93
2021/07/20 00:40:20;;;;;;;28.20;22.07;;;;;;;;;;4983649;28;20445;-93
2021/07/20 00:42:49;;;;;;;25.40;20.40;;;;;;;;;;4987223;28;20496;-93
2021/07/20 00:45:16;;;;;;;23.63;20.00;;;;;;;;;;5001305;28;20449;-93
2021/07/20 00:47:43;;;;;;;21.63;18.80;;;;;;;;;;5001682;28;20857;-93
2021/07/20 00:50:10;;;;;;;23.53;19.70;;;;;;;;;;5002744;28;20527;-93
2021/07/20 00:52:37;;;;;;;24.77;19.67;;;;;;;;;;5002355;28;20449;-93
2021/07/20 00:55:04;;;;;;;27.33;19.90;;;;;;;;;;4999934;28;20480;-92
2021/07/20 00:57:31;;;;;;;27.63;21.70;;;;;;;;;;4982771;28;20508;-92
2021/07/20 00:59:59;;;;;;;25.70;21.83;;;;;;;;;;4984259;28;20476;-93
2021/07/20 01:02:26;;;;;;;22.03;19.60;;;;;;;;;;4986351;28;20560;-93
2021/07/20 01:04:53;;;;;;;24.07;21.57;;;;;;;;;;4986397;28;20501;-93
2021/07/20 01:07:20;;;;;;;26.90;22.53;;;;;;;;;;4985873;28;20575;-93
2021/07/20 01:09:47;;;;;;;24.20;20.63;;;;;;;;;;4987832;28;20471;-92
2021/07/20 01:12:14;;;;;;;28.03;21.70;;;;;;;;;;4990529;28;20512;-93
2021/07/20 01:14:41;;;;;;;25.50;21.70;;;;;;;;;;4988684;28;20461;-95
2021/07/20 01:17:10;;;;;;;28.53;21.53;;;;;;;;;;4988427;28;20461;-94
2021/07/20 01:19:37;;;;;;;23.30;20.40;;;;;;;;;;4986307;28;20522;-93
2021/07/20 01:22:04;;;;;;;25.33;21.03;;;;;;;;;;4985729;28;20501;-94
2021/07/20 01:24:32;;;;;;;27.97;20.80;;;;;;;;;;4987667;28;20472;-94
2021/07/20 01:26:59;;;;;;;28.90;22.23;;;;;;;;;;4988505;28;20458;-94
2021/07/20 01:29:26;;;;;;;27.07;22.13;;;;;;;;;;4987177;28;21043;-94
2021/07/20 01:31:53;;;;;;;26.93;21.27;;;;;;;;;;4987202;28;20457;-93
2021/07/20 01:34:21;;;;;;;22.83;20.17;;;;;;;;;;4986535;28;20449;-93
2021/07/20 01:36:48;;;;;;;26.33;20.63;;;;;;;;;;4987403;28;20453;-94
2021/07/20 01:39:15;;;;;;;26.53;21.90;;;;;;;;;;4986402;28;20480;-92
2021/07/20 01:41:45;;;;;;;27.43;23.47;;;;;;;;;;4986081;28;20496;-94
2021/07/20 01:44:13;;;;;;;29.57;23.57;;;;;;;;;;4985327;28;20453;-94
2021/07/20 01:46:40;;;;;;;28.00;23.33;;;;;;;;;;4985419;28;20485;-95
2021/07/20 01:49:07;;;;;;;26.63;22.30;;;;;;;;;;4987033;28;20645;-93
2021/07/20 01:51:34;;;;;;;27.13;21.50;;;;;;;;;;4987875;28;20457;-95
2021/07/20 01:54:01;;;;;;;24.87;22.23;;;;;;;;;;4987270;28;20446;-95
2021/07/20 01:56:28;;;;;;;25.53;21.70;;;;;;;;;;4987475;28;20833;-93
2021/07/20 01:58:56;;;;;;;26.50;21.40;;;;;;;;;;4986556;28;20461;-95
2021/07/20 02:01:24;;;;;;;32.80;22.57;;;;;;;;;;4988123;28;20455;-95
2021/07/20 02:04:14;;;;;;;25.70;21.40;;;;;;;;;;4990372;28;20454;-96
2021/07/20 02:09:27;;;;;;;23.27;18.97;;;;;;;;;;5010819;28;20452;-95
2021/07/20 02:11:54;;;;;;;25.27;20.10;;;;;;;;;;5006470;28;20463;-94
2021/07/20 02:14:27;;;;;;;24.63;20.57;;;;;;;;;;5004881;28;20483;-92
2021/07/20 02:16:55;;;;;;;25.07;20.20;;;;;;;;;;5004227;28;20453;-92
2021/07/20 02:19:23;;;;;;;25.93;20.67;;;;;;;;;;4986627;28;20465;-93
2021/07/20 02:21:52;;;;;;;23.77;19.97;;;;;;;;;;5000198;28;20489;-93
2021/07/20 02:24:21;;;;;;;21.80;19.43;;;;;;;;;;5004769;28;20513;-93
2021/07/20 02:26:48;;;;;;;22.27;19.97;;;;;;;;;;5005975;28;20519;-95
2021/07/20 02:29:16;;;;;;;22.70;20.30;;;;;;;;;;5007343;28;20483;-95
2021/07/20 02:31:45;;;;;;;23.73;20.93;;;;;;;;;;5012754;28;20452;-94
2021/07/20 02:34:12;;;;;;;26.37;21.17;;;;;;;;;;5012719;28;20848;-93
2021/07/20 02:36:39;;;;;;;25.50;20.73;;;;;;;;;;5006331;28;20453;-94
2021/07/20 02:39:06;;;;;;;26.93;21.80;;;;;;;;;;5005784;28;20449;-94
2021/07/20 02:41:32;;;;;;;25.30;22.00;;;;;;;;;;5006221;28;20908;-93
2021/07/20 02:43:59;;;;;;;24.03;20.93;;;;;;;;;;5006313;28;20476;-94
2021/07/20 02:46:26;;;;;;;29.07;21.57;;;;;;;;;;5005079;28;20920;-93
2021/07/20 02:48:56;;;;;;;23.47;20.97;;;;;;;;;;4997695;28;20468;-95
2021/07/20 02:51:24;;;;;;;32.50;23.07;;;;;;;;;;5006215;28;20884;-94
2021/07/20 02:53:53;;;;;;;26.67;22.73;;;;;;;;;;5008379;28;20472;-96
2021/07/20 02:56:19;;;;;;;29.33;22.97;;;;;;;;;;5005814;28;20477;-95
2021/07/20 02:58:48;;;;;;;26.37;22.13;;;;;;;;;;5005350;28;20484;-95
2021/07/20 03:01:15;;;;;;;27.90;21.90;;;;;;;;;;5003368;28;20521;-94
2021/07/20 03:03:41;;;;;;;32.27;23.10;;;;;;;;;;5004201;28;20496;-95
2021/07/20 03:06:10;;;;;;;29.43;22.60;;;;;;;;;;4996753;28;20508;-95
2021/07/20 03:08:37;;;;;;;29.60;21.70;;;;;;;;;;5003771;28;20448;-94
2021/07/20 03:11:05;;;;;;;25.90;21.23;;;;;;;;;;5005213;28;20453;-93
2021/07/20 03:13:32;;;;;;;28.03;22.30;;;;;;;;;;5004894;28;21041;-93
2021/07/20 03:15:59;;;;;;;29.40;21.40;;;;;;;;;;5004388;28;20479;-94
2021/07/20 03:18:27;;;;;;;28.03;18.77;;;;;;;;;;5004575;28;20457;-93
2021/07/20 03:20:55;;;;;;;30.10;20.70;;;;;;;;;;5003612;28;21110;-93
2021/07/20 03:23:23;;;;;;;29.23;20.67;;;;;;;;;;5002570;28;21061;-94
2021/07/20 03:25:50;;;;;;;26.73;20.80;;;;;;;;;;5002167;28;20465;-94
2021/07/20 03:28:18;;;;;;;28.17;21.10;;;;;;;;;;5003103;28;20453;-94
2021/07/20 03:30:45;;;;;;;25.93;21.67;;;;;;;;;;4996309;28;20863;-92
2021/07/20 03:33:12;;;;;;;29.97;21.77;;;;;;;;;;5004446;28;20556;-93
2021/07/20 03:35:39;;;;;;;33.20;22.30;;;;;;;;;;4995460;28;20460;-92
2021/07/20 03:38:06;;;;;;;27.57;21.80;;;;;;;;;;5003760;28;20457;-93
2021/07/20 03:40:34;;;;;;;24.73;22.00;;;;;;;;;;5002810;28;20453;-94
2021/07/20 03:43:01;;;;;;;23.47;20.97;;;;;;;;;;5002830;28;20520;-94
2021/07/20 03:45:28;;;;;;;27.87;23.20;;;;;;;;;;5003031;28;20483;-95
2021/07/20 03:47:55;;;;;;;26.17;21.53;;;;;;;;;;5004587;28;20516;-94
2021/07/20 03:50:22;;;;;;;29.10;22.23;;;;;;;;;;5004137;28;20552;-94
2021/07/20 03:52:49;;;;;;;28.27;20.00;;;;;;;;;;5004544;28;20476;-95
2021/07/20 03:55:17;;;;;;;26.70;22.13;;;;;;;;;;5004027;28;20507;-94
2021/07/20 03:57:46;;;;;;;27.83;20.87;;;;;;;;;;5004018;28;20452;-94
2021/07/20 04:00:14;;;;;;;25.17;21.20;;;;;;;;;;4992053;28;20513;-94
2021/07/20 04:02:48;;;;;;;25.93;20.57;;;;;;;;;;4997411;28;20519;-94
2021/07/20 04:05:15;;;;;;;25.60;20.90;;;;;;;;;;5001905;28;20471;-94
2021/07/20 04:07:44;;;;;;;21.80;19.03;;;;;;;;;;5002748;28;20464;-95
2021/07/20 04:10:11;;;;;;;24.23;21.53;;;;;;;;;;5002175;28;20449;-94
2021/07/20 04:12:38;;;;;;;27.97;21.67;;;;;;;;;;5001718;28;20452;-94
2021/07/20 04:15:07;;;;;;;27.23;22.13;;;;;;;;;;5001874;28;20484;-95
2021/07/20 04:17:34;;;;;;;31.73;21.77;;;;;;;;;;5001653;28;20460;-94
2021/07/20 04:20:00;;;;;;;26.33;20.97;;;;;;;;;;5003823;28;20456;-94
2021/07/20 04:22:27;;;;;;;26.43;21.50;;;;;;;;;;5003874;28;20555;-94
2021/07/20 04:24:54;;;;;;;30.03;21.07;;;;;;;;;;5004091;28;20445;-95
2021/07/20 04:27:21;;;;;;;29.63;21.17;;;;;;;;;;5005233;28;20449;-95
2021/07/20 04:29:48;;;;;;;35.30;20.00;;;;;;;;;;4996951;28;20454;-96
2021/07/20 04:32:17;;;;;;;28.40;20.17;;;;;;;;;;5004110;28;20491;-95
2021/07/20 04:34:47;;;;;;;25.70;19.87;;;;;;;;;;5004105;28;20452;-96
2021/07/20 04:37:15;;;;;;;28.33;21.63;;;;;;;;;;5004671;28;20524;-94
2021/07/20 04:39:41;;;;;;;24.27;19.77;;;;;;;;;;5003802;28;20524;-96
2021/07/20 04:42:08;;;;;;;25.47;20.23;;;;;;;;;;5004026;28;20499;-96
2021/07/20 04:44:36;;;;;;;23.03;20.50;;;;;;;;;;5003633;28;20453;-96
2021/07/20 04:47:03;;;;;;;28.00;21.87;;;;;;;;;;5002731;28;20453;-94
2021/07/20 04:49:32;;;;;;;24.00;20.00;;;;;;;;;;5004152;28;20444;-95
2021/07/20 04:51:59;;;;;;;44.80;22.40;;;;;;;;;;5006513;28;20459;-96
2021/07/20 04:54:25;;;;;;;26.33;21.17;;;;;;;;;;5005038;28;20453;-96
2021/07/20 04:56:52;;;;;;;30.23;20.83;;;;;;;;;;5002988;28;20452;-96
2021/07/20 04:59:18;;;;;;;26.40;20.13;;;;;;;;;;5003369;28;20451;-95
2021/07/20 05:01:46;;;;;;;32.67;20.70;;;;;;;;;;5004528;28;20453;-95
2021/07/20 05:04:13;;;;;;;24.07;20.37;;;;;;;;;;5003286;28;20480;-95
2021/07/20 05:06:41;;;;;;;28.00;21.73;;;;;;;;;;5010107;28;20489;-96
2021/07/20 05:09:14;;;;;;;28.97;20.63;;;;;;;;;;5005614;28;20460;-96
2021/07/20 05:11:43;;;;;;;25.27;21.00;;;;;;;;;;4998605;28;20447;-96
2021/07/20 05:14:36;;;;;;;28.43;20.20;;;;;;;;;;5230869;23;21475;-96
2021/07/20 05:19:39;;;;;;;27.37;20.40;;;;;;;;;;5137268;23;20479;-96
2021/07/20 05:22:22;;;;;;;31.27;21.00;;;;;;;;;;5079674;23;20491;-96
2021/07/20 05:28:24;;;;;;;26.20;19.63;;;;;;;;;;5021803;28;20455;-96
2021/07/20 05:31:05;;;;;;;26.17;20.67;;;;;;;;;;5025120;28;20454;-96
2021/07/20 05:44:08;;;;;;;26.70;21.13;;;;;;;;;;5251796;23;20493;-94
2021/07/20 05:46:35;;;;;;;29.17;22.30;;;;;;;;;;4982574;28;20509;-94
2021/07/20 05:49:02;;;;;;;39.70;21.97;;;;;;;;;;4969474;28;20461;-96
2021/07/20 05:56:40;;;;;;;24.23;20.30;;;;;;;;;;5008125;28;20285;-95
2021/07/20 05:59:28;;;;;;;41.37;23.40;;;;;;;;;;5003444;28;20481;-96
2021/07/20 06:02:07;;;;;;;27.40;21.53;;;;;;;;;;5014103;28;20439;-96
2021/07/20 06:04:34;;;;;;;23.73;20.83;;;;;;;;;;5011313;28;20482;-94
2021/07/20 06:07:03;;;;;;;24.27;21.70;;;;;;;;;;5007398;28;20460;-95
2021/07/20 06:09:30;;;;;;;24.83;22.20;;;;;;;;;;4997938;28;20453;-94
2021/07/20 06:12:14;;;;;;;24.20;21.50;;;;;;;;;;4990202;28;20475;-94
2021/07/20 06:14:42;;;;;;;25.97;22.40;;;;;;;;;;4999681;28;20475;-93
2021/07/20 06:17:09;;;;;;;24.93;21.70;;;;;;;;;;4994842;28;20454;-96
2021/07/20 06:19:38;;;;;;;32.07;21.30;;;;;;;;;;5002807;28;20460;-95
2021/07/20 06:22:07;;;;;;;28.37;21.63;;;;;;;;;;5136484;23;20507;-96
2021/07/20 06:30:18;;;;;;;24.90;20.60;;;;;;;;;;5222011;23;21113;-96
2021/07/20 06:32:45;;;;;;;25.30;21.63;;;;;;;;;;5027972;28;20456;-95
2021/07/20 06:35:21;;;;;;;24.03;21.43;;;;;;;;;;5027191;28;20550;-96
2021/07/20 06:37:49;;;;;;;25.13;21.77;;;;;;;;;;5020990;28;20443;-96
2021/07/20 06:40:18;;;;;;;31.20;22.43;;;;;;;;;;5112973;23;20493;-96
2021/07/20 06:42:45;;;;;;;26.63;20.63;;;;;;;;;;5015717;28;20460;-95
2021/07/20 06:45:14;;;;;;;23.73;21.20;;;;;;;;;;5020828;28;20460;-96
2021/07/20 06:47:55;;;;;;;30.90;21.90;;;;;;;;;;5025917;28;20448;-96
2021/07/20 06:50:23;;;;;;;24.90;22.20;;;;;;;;;;5027508;28;20962;-96
2021/07/20 06:53:00;;;;;;;24.70;21.70;;;;;;;;;;5019599;28;20445;-96
2021/07/20 06:55:28;;;;;;;24.43;21.37;;;;;;;;;;5012690;28;20524;-93
2021/07/20 06:57:54;;;;;;;30.47;20.97;;;;;;;;;;5029917;28;20515;-93
2021/07/20 07:00:31;;;;;;;25.90;22.30;;;;;;;;;;5027388;28;20459;-96
2021/07/20 07:02:59;;;;;;;27.23;22.23;;;;;;;;;;5008116;28;20458;-94
2021/07/20 07:08:01;;;;;;;24.73;22.00;;;;;;;;;;5026269;28;20288;-93
2021/07/20 07:10:34;;;;;;;29.43;24.10;;;;;;;;;;5008978;28;20525;-96
2021/07/20 07:13:05;;;;;;;24.67;21.20;;;;;;;;;;5027034;28;20444;-94
2021/07/20 07:15:34;;;;;;;24.07;21.30;;;;;;;;;;5027000;28;20448;-96
2021/07/20 07:18:02;;;;;;;22.97;20.47;;;;;;;;;;5028911;28;20471;-96
2021/07/20 07:20:33;;;;;;;21.83;19.63;;;;;;;;;;5026347;28;20460;-96
2021/07/20 07:23:02;;;;;;;24.00;21.40;;;;;;;;;;5021643;28;20460;-94
2021/07/20 07:28:04;;;;;;;22.93;20.60;;;;;;;;;;4987094;23;20494;-96
2021/07/20 07:30:31;;;;;;;25.63;22.10;;;;;;;;;;4997334;23;20491;-94
2021/07/20 07:32:59;;;;;;;25.17;20.97;;;;;;;;;;5003040;28;20449;-96
2021/07/20 07:35:27;;;;;;;24.27;21.37;;;;;;;;;;5002568;28;20463;-95
2021/07/20 07:37:54;;;;;;;21.97;19.57;;;;;;;;;;4999319;28;20451;-95
2021/07/20 07:40:23;;;;;;;20.97;18.83;;;;;;;;;;5002474;28;20803;-95
2021/07/20 07:42:50;;;;;;;24.70;20.63;;;;;;;;;;5015202;23;20473;-96
2021/07/20 07:45:18;;;;;;;23.10;20.60;;;;;;;;;;5029842;28;20495;-96
2021/07/20 07:47:45;;;;;;;24.50;20.03;;;;;;;;;;5023634;28;20460;-95
2021/07/20 07:53:06;;;;;;;21.33;18.70;;;;;;;;;;5695303;23;20490;-96
2021/07/20 07:55:36;;;;;;;23.67;20.43;;;;;;;;;;5008285;28;20470;-95
2021/07/20 08:00:44;;;;;;;24.27;19.50;;;;;;;;;;5114771;23;20485;-95
2021/07/20 08:08:43;;;;;;;23.00;20.50;;;;;;;;;;5214254;23;20484;-94
2021/07/20 08:11:12;;;;;;;21.70;19.30;;;;;;;;;;5004634;28;20448;-94
2021/07/20 08:13:39;;;;;;;21.83;19.53;;;;;;;;;;5006481;28;20456;-95
2021/07/20 08:16:07;;;;;;;22.17;19.83;;;;;;;;;;5000466;28;20488;-96
2021/07/20 08:18:35;;;;;;;22.93;20.23;;;;;;;;;;5018980;28;20443;-96
2021/07/20 08:21:05;;;;;;;22.40;18.13;;;;;;;;;;5010066;28;20476;-96
2021/07/20 08:23:33;;;;;;;25.10;18.23;;;;;;;;;;5026990;28;20495;-96
2021/07/20 08:28:54;;;;;;;25.40;18.97;;;;;;;;;;5013339;28;20495;-95
2021/07/20 08:31:21;;;;;;;19.57;17.47;;;;;;;;;;4995608;28;20432;-96
2021/07/20 08:33:55;;;;;;;20.37;16.40;;;;;;;;;;4992203;28;20435;-95
2021/07/20 08:36:26;;;;;;;17.07;15.27;;;;;;;;;;4993346;28;20800;-96
2021/07/20 08:38:56;;;;;;;17.93;15.93;;;;;;;;;;4989861;28;20433;-96
2021/07/20 08:41:31;;;;;;;19.20;16.40;;;;;;;;;;4996463;28;20548;-94
2021/07/20 08:44:06;;;;;;;18.50;16.60;;;;;;;;;;4988040;28;21068;-95
2021/07/20 08:46:52;;;;;;;17.33;15.63;;;;;;;;;;4988821;28;20523;-96
2021/07/20 08:49:43;;;;;;;22.73;18.40;;;;;;;;;;5149318;23;20485;-96
2021/07/20 08:54:55;;;;;;;16.27;14.70;;;;;;;;;;4908792;26;20523;-95
2021/07/20 08:57:28;;;;;;;15.40;13.67;;;;;;;;;;5069385;23;20496;-96
2021/07/20 09:00:12;;;;;;;17.53;14.40;;;;;;;;;;5021447;28;20436;-96
2021/07/20 09:03:24;;;;;;;16.27;14.60;;;;;;;;;;5010179;28;20745;-96
2021/07/20 09:06:03;;;;;;;18.40;14.80;;;;;;;;;;5015780;28;20436;-95
2021/07/20 09:08:33;;;;;;;17.13;14.10;;;;;;;;;;5010243;28;20452;-96
2021/07/20 09:11:03;;;;;;;16.57;14.77;;;;;;;;;;5022785;28;20466;-94
2021/07/20 09:13:33;;;;;;;16.90;14.83;;;;;;;;;;5021676;28;20467;-96
2021/07/20 09:16:04;;;;;;;15.83;14.33;;;;;;;;;;5006385;28;20445;-93
2021/07/20 09:18:38;;;;;;;15.93;14.00;;;;;;;;;;5015465;28;20478;-94
2021/07/20 09:21:07;;;;;;;16.00;14.40;;;;;;;;;;5018996;28;20522;-96
2021/07/20 09:23:43;;;;;;;16.67;15.03;;;;;;;;;;5024693;28;20544;-93
2021/07/20 09:26:14;;;;;;;18.53;15.00;;;;;;;;;;5014735;28;20452;-96
2021/07/20 09:28:41;;;;;;;16.10;14.57;;;;;;;;;;5008345;28;20464;-94
2021/07/20 09:31:10;;;;;;;17.50;15.70;;;;;;;;;;5014453;28;20514;-95
2021/07/20 09:33:41;;;;;;;16.23;14.70;;;;;;;;;;5022975;28;20576;-96
2021/07/20 09:36:12;;;;;;;22.33;15.70;;;;;;;;;;5016205;28;20523;-96
2021/07/20 09:38:47;;;;;;;16.77;15.03;;;;;;;;;;5023728;28;20445;-94
2021/07/20 09:41:19;;;;;;;18.17;16.10;;;;;;;;;;5021808;28;20459;-96
2021/07/20 09:43:54;;;;;;;16.57;14.97;;;;;;;;;;5018857;28;20464;-96
2021/07/20 09:46:22;;;;;;;21.67;15.80;;;;;;;;;;5013815;28;20439;-96
2021/07/20 09:52:09;;;;;;;17.77;15.97;;;;;;;;;;5009640;28;20467;-94
2021/07/20 09:54:46;;;;;;;17.70;15.90;;;;;;;;;;4997962;28;20472;-96
2021/07/20 09:57:29;;;;;;;18.23;15.67;;;;;;;;;;5002370;28;20473;-94
